Time;durP1;ratioP1;P1;durP2;ratioP2;P2;SDS_P1;SDS_P2;PMS_P1;PMS_P2;Temp;Humidity;BMP_temperature;BMP_pressure;BME280_temperature;BME280_humidity;BME280_pressure;Samples;Min_cycle;Max_cycle;Signal;HPM_P1;HPM_P2
2022/10/27 00:00:01;;;;;;;55.20;50.70;;;;;;;13.06;100.00;101958.09;4999978;28;20496;-45
2022/10/27 00:02:29;;;;;;;54.10;49.90;;;;;;;13.03;100.00;101971.84;4999457;28;20433;-49
2022/10/27 00:04:57;;;;;;;53.47;49.43;;;;;;;13.00;100.00;101965.03;4993622;28;20425;-52
2022/10/27 00:07:26;;;;;;;55.03;50.20;;;;;;;12.97;100.00;101972.59;4991697;28;20757;-48
2022/10/27 00:09:53;;;;;;;54.17;49.83;;;;;;;12.95;100.00;101970.09;4990997;28;21007;-47
2022/10/27 00:12:22;;;;;;;54.27;49.10;;;;;;;12.94;100.00;101970.28;4991424;28;20438;-51
2022/10/27 00:14:49;;;;;;;55.07;50.70;;;;;;;12.91;100.00;101973.31;4991663;28;20430;-48
2022/10/27 00:17:17;;;;;;;55.53;51.13;;;;;;;12.90;100.00;101975.19;5008230;28;21113;-51
2022/10/27 00:19:44;;;;;;;54.30;49.50;;;;;;;12.88;100.00;101979.03;5008668;28;20469;-50
2022/10/27 00:22:12;;;;;;;56.17;51.70;;;;;;;12.86;100.00;101978.38;5013526;28;20922;-45
2022/10/27 00:24:41;;;;;;;53.47;48.77;;;;;;;12.84;100.00;101980.44;5015227;28;20426;-50
2022/10/27 00:27:08;;;;;;;57.90;53.30;;;;;;;12.81;100.00;101976.28;5006954;28;20850;-45
2022/10/27 00:29:36;;;;;;;56.07;51.33;;;;;;;12.81;100.00;101988.81;5001169;28;20462;-47
2022/10/27 00:32:04;;;;;;;55.67;51.50;;;;;;;12.79;100.00;101980.94;5000454;28;20428;-45
2022/10/27 00:34:32;;;;;;;55.90;50.83;;;;;;;12.78;100.00;101982.78;4998252;28;20831;-46
2022/10/27 00:36:59;;;;;;;57.47;52.07;;;;;;;12.77;100.00;101991.84;5000102;28;20477;-51
2022/10/27 00:39:27;;;;;;;56.93;51.87;;;;;;;12.75;100.00;101987.69;5005426;28;20461;-48
2022/10/27 00:41:56;;;;;;;58.53;53.80;;;;;;;12.72;100.00;101986.19;4999180;28;20438;-45
2022/10/27 00:44:43;;;;;;;58.67;54.17;;;;;;;12.70;100.00;101988.22;5008519;28;20464;-45
2022/10/27 00:47:20;;;;;;;58.33;53.73;;;;;;;12.68;100.00;101989.41;5000065;28;20508;-46
2022/10/27 00:49:53;;;;;;;62.03;57.03;;;;;;;12.66;100.00;101997.63;5001014;28;20496;-47
2022/10/27 00:52:27;;;;;;;63.40;58.00;;;;;;;12.63;100.00;101997.97;4998240;28;20464;-50
2022/10/27 00:54:58;;;;;;;60.70;55.63;;;;;;;12.60;100.00;101990.31;4995455;28;20429;-50
2022/10/27 00:57:28;;;;;;;60.17;55.70;;;;;;;12.57;100.00;101996.00;5007617;28;20563;-46
2022/10/27 00:59:57;;;;;;;60.87;56.07;;;;;;;12.55;100.00;101991.84;5010276;28;20461;-48
2022/10/27 01:02:25;;;;;;;62.73;57.63;;;;;;;12.52;100.00;102002.91;5009891;28;20437;-47
2022/10/27 01:04:57;;;;;;;62.83;58.00;;;;;;;12.48;100.00;102005.13;4992110;28;20430;-46
2022/10/27 01:07:25;;;;;;;61.70;57.17;;;;;;;12.43;100.00;102010.16;5008994;28;20456;-50
2022/10/27 01:09:53;;;;;;;62.23;57.43;;;;;;;12.40;100.00;102013.19;4996034;28;20450;-52
2022/10/27 01:12:21;;;;;;;62.33;57.47;;;;;;;12.37;100.00;102016.22;5001294;28;20437;-50
2022/10/27 01:14:56;;;;;;;64.27;59.10;;;;;;;12.35;100.00;102020.94;5010711;28;20810;-48
2022/10/27 01:17:38;;;;;;;62.80;58.20;;;;;;;12.31;100.00;102021.44;4999376;28;20484;-51
2022/10/27 01:20:35;;;;;;;63.43;58.40;;;;;;;12.29;100.00;102012.78;5008536;28;20465;-49
2022/10/27 01:23:10;;;;;;;64.00;58.90;;;;;;;12.28;100.00;102021.81;4989391;28;20442;-49
2022/10/27 01:26:12;;;;;;;65.70;60.30;;;;;;;12.27;100.00;102012.13;5010549;28;20479;-48
2022/10/27 01:28:59;;;;;;;64.73;59.80;;;;;;;12.25;100.00;102016.81;5009954;28;20467;-46
2022/10/27 01:31:31;;;;;;;66.83;60.90;;;;;;;12.24;100.00;102021.34;5010829;28;20495;-51
2022/10/27 01:34:09;;;;;;;64.83;59.87;;;;;;;12.20;100.00;102018.19;4991159;28;20423;-49
2022/10/27 01:36:41;;;;;;;64.20;59.40;;;;;;;12.19;100.00;102032.56;5006618;28;21033;-46
2022/10/27 01:39:17;;;;;;;63.40;58.77;;;;;;;12.16;100.00;102016.03;5000781;28;20464;-50
2022/10/27 01:41:48;;;;;;;67.23;62.10;;;;;;;12.13;100.00;102027.06;5010193;28;20479;-45
2022/10/27 01:44:22;;;;;;;70.13;64.80;;;;;;;12.10;100.00;102036.28;5008622;28;20466;-46
2022/10/27 01:46:53;;;;;;;69.03;63.50;;;;;;;12.08;100.00;102029.44;4994818;28;20531;-51
2022/10/27 01:49:20;;;;;;;71.80;66.40;;;;;;;12.03;100.00;102030.00;5000429;28;20850;-48
2022/10/27 01:51:49;;;;;;;68.13;63.43;;;;;;;12.01;100.00;102031.16;5001942;28;20429;-48
2022/10/27 01:54:19;;;;;;;69.23;63.83;;;;;;;11.98;100.00;102036.84;5002377;28;20449;-45
2022/10/27 01:57:12;;;;;;;68.73;62.77;;;;;;;11.96;100.00;102042.38;4994334;28;20446;-48
2022/10/27 01:59:50;;;;;;;72.53;66.73;;;;;;;11.92;100.00;102050.91;4993435;28;20461;-46
2022/10/27 02:02:28;;;;;;;69.27;64.20;;;;;;;11.90;100.00;102051.09;5002622;28;20429;-51
2022/10/27 02:05:05;;;;;;;67.20;62.10;;;;;;;11.89;100.00;102061.94;5013749;28;20440;-48
2022/10/27 02:07:42;;;;;;;71.33;66.43;;;;;;;11.87;100.00;102059.44;5010737;28;21033;-47
2022/10/27 02:10:15;;;;;;;69.03;64.23;;;;;;;11.86;100.00;102054.25;4993613;28;20520;-52
2022/10/27 02:12:45;;;;;;;69.77;64.83;;;;;;;11.84;100.00;102057.13;4993948;28;20418;-49
2022/10/27 02:15:23;;;;;;;72.83;67.13;;;;;;;11.81;100.00;102060.16;5003217;28;20433;-47
2022/10/27 02:17:57;;;;;;;72.50;67.43;;;;;;;11.79;100.00;102067.50;5004827;28;20964;-50
2022/10/27 02:20:29;;;;;;;73.63;68.27;;;;;;;11.77;100.00;102069.50;5012227;28;20465;-50
2022/10/27 02:22:59;;;;;;;71.40;66.10;;;;;;;11.73;100.00;102075.38;4999323;28;20425;-50
2022/10/27 02:25:35;;;;;;;70.17;64.90;;;;;;;11.70;100.00;102079.22;4998114;28;20943;-51
2022/10/27 02:28:07;;;;;;;76.10;70.70;;;;;;;11.68;100.00;102075.03;5002457;28;20454;-50
2022/10/27 02:30:36;;;;;;;71.83;66.33;;;;;;;11.66;100.00;102083.22;5003284;28;20516;-51
2022/10/27 02:33:06;;;;;;;72.80;67.30;;;;;;;11.64;100.00;102075.38;5007600;28;20772;-50
2022/10/27 02:35:34;;;;;;;70.63;65.50;;;;;;;11.63;100.00;102079.03;5002816;28;20429;-49
2022/10/27 02:38:01;;;;;;;69.37;64.37;;;;;;;11.62;100.00;102087.22;5012743;28;20453;-47
2022/10/27 02:40:29;;;;;;;70.17;64.83;;;;;;;11.59;100.00;102087.56;5008132;28;21283;-48
2022/10/27 02:42:56;;;;;;;71.83;65.40;;;;;;;11.58;100.00;102093.91;5008320;28;20472;-50
2022/10/27 02:45:24;;;;;;;69.93;64.80;;;;;;;11.54;100.00;102093.41;5012749;28;20495;-44
2022/10/27 02:47:52;;;;;;;68.60;63.80;;;;;;;11.50;100.00;102096.59;5013217;28;21004;-46
2022/10/27 02:50:20;;;;;;;71.30;65.80;;;;;;;11.49;100.00;102102.94;5012055;28;20515;-49
2022/10/27 02:52:48;;;;;;;71.80;66.40;;;;;;;11.46;100.00;102096.13;5011913;28;20441;-51
2022/10/27 02:55:16;;;;;;;72.97;67.63;;;;;;;11.42;100.00;102100.13;5011717;28;20429;-52
2022/10/27 02:57:46;;;;;;;73.53;67.50;;;;;;;11.40;100.00;102094.13;5012498;28;20508;-48
2022/10/27 03:00:14;;;;;;;73.60;67.90;;;;;;;11.37;100.00;102096.28;4992408;28;20520;-50
2022/10/27 03:02:42;;;;;;;70.33;65.47;;;;;;;11.33;100.00;102090.44;5011663;28;20433;-51
2022/10/27 03:05:10;;;;;;;70.60;65.60;;;;;;;11.31;100.00;102084.44;5012128;28;20436;-47
2022/10/27 03:07:39;;;;;;;71.70;66.80;;;;;;;11.27;100.00;102092.94;5007768;28;20461;-51
2022/10/27 03:10:07;;;;;;;73.80;68.40;;;;;;;11.24;100.00;102090.63;5011790;28;20461;-50
2022/10/27 03:12:35;;;;;;;75.63;70.20;;;;;;;11.21;100.00;102097.13;5011852;28;20516;-52
2022/10/27 03:15:03;;;;;;;73.20;68.23;;;;;;;11.20;100.00;102108.00;5009914;28;20855;-47
2022/10/27 03:17:30;;;;;;;78.13;72.57;;;;;;;11.18;100.00;102097.47;5011916;28;20453;-52
2022/10/27 03:19:58;;;;;;;76.60;71.53;;;;;;;11.17;100.00;102111.81;5012997;28;20473;-51
2022/10/27 03:22:30;;;;;;;79.33;73.60;;;;;;;11.17;100.00;102111.00;5022941;28;20436;-53
2022/10/27 03:25:00;;;;;;;75.87;70.40;;;;;;;11.16;100.00;102112.81;5013180;28;20846;-49
2022/10/27 03:27:28;;;;;;;77.50;72.40;;;;;;;11.16;100.00;102120.84;5010464;28;20457;-49
2022/10/27 03:29:55;;;;;;;78.83;73.50;;;;;;;11.17;100.00;102127.81;5011162;28;20465;-50
2022/10/27 03:32:23;;;;;;;80.50;74.00;;;;;;;11.18;100.00;102126.84;5011303;28;20438;-50
2022/10/27 03:34:50;;;;;;;83.67;77.30;;;;;;;11.18;100.00;102134.84;5010154;28;20559;-51
2022/10/27 03:37:18;;;;;;;81.40;75.27;;;;;;;11.19;100.00;102128.50;5009522;28;20527;-52
2022/10/27 03:39:45;;;;;;;88.70;81.70;;;;;;;11.17;100.00;102135.84;5010911;28;20492;-48
2022/10/27 03:42:14;;;;;;;83.37;76.60;;;;;;;11.18;100.00;102134.00;5010319;28;20437;-48
2022/10/27 03:44:42;;;;;;;81.87;75.77;;;;;;;11.18;100.00;102140.19;5011259;28;20433;-47
2022/10/27 03:47:10;;;;;;;81.40;75.40;;;;;;;11.17;100.00;102141.19;5011482;28;20977;-47
2022/10/27 03:49:37;;;;;;;81.77;75.77;;;;;;;11.18;100.00;102140.19;5001962;28;21063;-48
2022/10/27 03:52:05;;;;;;;85.43;77.83;;;;;;;11.17;100.00;102135.84;5011348;28;20433;-53
2022/10/27 03:54:33;;;;;;;85.80;79.27;;;;;;;11.14;100.00;102128.16;5011148;28;20659;-49
2022/10/27 03:57:00;;;;;;;91.43;84.07;;;;;;;11.13;100.00;102133.69;5009154;28;20507;-48
2022/10/27 03:59:29;;;;;;;91.33;82.93;;;;;;;11.12;100.00;102138.19;5010937;28;20531;-53
2022/10/27 04:01:57;;;;;;;84.80;77.30;;;;;;;11.10;100.00;102141.03;5011292;28;21153;-51
2022/10/27 04:04:28;;;;;;;84.30;77.73;;;;;;;11.12;100.00;102140.84;5011062;28;20448;-48
2022/10/27 04:06:56;;;;;;;81.80;75.60;;;;;;;11.13;100.00;102139.84;5010398;28;20854;-51
2022/10/27 04:09:23;;;;;;;86.97;79.87;;;;;;;11.14;100.00;102144.19;5010663;28;20465;-50
2022/10/27 04:11:51;;;;;;;95.03;87.03;;;;;;;11.13;100.00;102145.19;5010578;28;20468;-51
2022/10/27 04:14:18;;;;;;;85.73;79.30;;;;;;;11.12;100.00;102151.53;5010840;28;20462;-50
2022/10/27 04:16:50;;;;;;;89.17;82.20;;;;;;;11.11;100.00;102152.53;5011537;28;20451;-51
2022/10/27 04:19:18;;;;;;;87.10;80.23;;;;;;;11.13;100.00;102161.22;5010726;28;20477;-51
2022/10/27 04:21:45;;;;;;;80.13;73.93;;;;;;;11.13;100.00;102153.22;5014044;28;20521;-47
2022/10/27 04:24:14;;;;;;;86.47;79.53;;;;;;;11.12;100.00;102154.19;5013172;28;20441;-48
2022/10/27 04:26:41;;;;;;;84.23;77.23;;;;;;;11.13;100.00;102161.22;5010441;28;21039;-49
2022/10/27 04:29:09;;;;;;;85.60;78.73;;;;;;;11.11;100.00;102172.03;5010431;28;20461;-49
2022/10/27 04:31:37;;;;;;;89.17;81.73;;;;;;;11.13;100.00;102177.25;5003986;28;20469;-49
2022/10/27 04:34:06;;;;;;;87.53;81.03;;;;;;;11.13;100.00;102171.91;5010613;28;20521;-52
2022/10/27 04:36:33;;;;;;;90.47;83.97;;;;;;;11.14;100.00;102164.72;5010785;28;20457;-47
2022/10/27 04:39:01;;;;;;;90.40;83.30;;;;;;;11.14;100.00;102156.72;5010058;28;20468;-46
2022/10/27 04:41:29;;;;;;;88.73;82.47;;;;;;;11.13;100.00;102157.72;5010616;28;20429;-47
2022/10/27 04:43:56;;;;;;;96.43;89.17;;;;;;;11.13;100.00;102160.38;5010757;28;20433;-51
2022/10/27 04:46:24;;;;;;;92.83;84.97;;;;;;;11.13;100.00;102149.69;5010759;28;20518;-50
2022/10/27 04:48:51;;;;;;;93.00;86.50;;;;;;;11.13;100.00;102155.88;5009953;28;20460;-47
2022/10/27 04:51:20;;;;;;;95.77;88.83;;;;;;;11.13;100.00;102165.72;5010419;28;20433;-51
2022/10/27 04:53:50;;;;;;;98.87;90.83;;;;;;;11.12;100.00;102162.22;5010575;28;20441;-53
2022/10/27 04:56:17;;;;;;;100.90;93.90;;;;;;;11.10;100.00;102161.56;5010521;28;20822;-51
2022/10/27 04:58:45;;;;;;;98.73;91.77;;;;;;;11.10;100.00;102157.06;5009798;28;20437;-49
2022/10/27 05:01:14;;;;;;;101.90;95.07;;;;;;;11.10;100.00;102153.53;5010550;28;20476;-49
2022/10/27 05:03:42;;;;;;;107.30;99.97;;;;;;;11.11;100.00;102158.69;5009965;28;20483;-51
2022/10/27 05:06:09;;;;;;;116.60;107.27;;;;;;;11.11;100.00;102156.03;5004379;28;20437;-52
2022/10/27 05:08:38;;;;;;;114.53;107.50;;;;;;;11.11;100.00;102158.69;5009792;28;20433;-49
2022/10/27 05:11:06;;;;;;;110.13;103.20;;;;;;;11.10;100.00;102164.22;5009745;28;20491;-51
2022/10/27 05:13:39;;;;;;;115.43;108.20;;;;;;;11.09;100.00;102173.22;5010416;28;20529;-53
2022/10/27 05:16:07;;;;;;;115.10;107.67;;;;;;;11.06;100.00;102166.38;5010901;28;20436;-49
2022/10/27 05:18:35;;;;;;;116.87;108.80;;;;;;;11.06;100.00;102168.22;5010428;28;20919;-49
2022/10/27 05:21:02;;;;;;;117.93;110.00;;;;;;;11.06;100.00;102168.22;5019953;28;20472;-49
2022/10/27 05:23:30;;;;;;;119.23;111.67;;;;;;;11.04;100.00;102172.88;5023079;28;20432;-46
2022/10/27 05:25:59;;;;;;;126.00;118.10;;;;;;;11.05;100.00;102177.25;5014161;28;20519;-49
2022/10/27 05:28:26;;;;;;;122.97;115.97;;;;;;;11.02;100.00;102182.91;5010863;28;20441;-46
2022/10/27 05:30:56;;;;;;;125.63;118.90;;;;;;;10.99;100.00;102180.56;5012155;28;20461;-46
2022/10/27 05:33:24;;;;;;;130.70;123.20;;;;;;;10.96;100.00;102180.91;5000286;28;20507;-50
2022/10/27 05:35:51;;;;;;;131.50;123.13;;;;;;;10.94;100.00;102177.53;5013596;28;20942;-48
2022/10/27 05:38:19;;;;;;;134.13;126.00;;;;;;;10.94;100.00;102185.53;5013042;28;20453;-47
2022/10/27 05:40:47;;;;;;;139.57;130.10;;;;;;;10.91;100.00;102180.53;5012784;28;20530;-45
2022/10/27 05:43:16;;;;;;;137.77;130.17;;;;;;;10.90;100.00;102186.88;5013605;28;20495;-46
2022/10/27 05:45:43;;;;;;;155.00;145.30;;;;;;;10.89;100.00;102188.72;5008777;28;20441;-45
2022/10/27 05:48:11;;;;;;;154.67;145.80;;;;;;;10.88;100.00;102186.19;5013532;28;21080;-45
2022/10/27 05:50:38;;;;;;;323.60;307.30;;;;;;;10.89;100.00;102194.06;5013156;28;20456;-47
2022/10/27 05:53:06;;;;;;;328.00;312.40;;;;;;;10.89;100.00;102196.72;5013502;28;20433;-46
2022/10/27 05:55:34;;;;;;;324.07;308.87;;;;;;;10.88;100.00;102194.19;5013593;28;20487;-45
2022/10/27 05:58:03;;;;;;;317.20;301.90;;;;;;;10.89;100.00;102190.53;5009404;28;20452;-50
2022/10/27 06:00:36;;;;;;;308.23;293.93;;;;;;;10.89;100.00;102188.72;5012779;28;20473;-51
2022/10/27 06:03:05;;;;;;;307.80;292.80;;;;;;;10.88;100.00;102188.84;5013649;28;20464;-50
2022/10/27 06:05:36;;;;;;;317.53;301.70;;;;;;;10.86;100.00;102186.38;5013538;28;20495;-48
2022/10/27 06:08:04;;;;;;;315.40;301.13;;;;;;;10.86;100.00;102189.03;5013456;28;20853;-50
2022/10/27 06:10:31;;;;;;;307.07;291.77;;;;;;;10.86;100.00;102177.53;5012699;28;20523;-50
2022/10/27 06:13:03;;;;;;;294.33;280.00;;;;;;;10.87;100.00;102190.69;5012820;28;20491;-48
2022/10/27 06:15:33;;;;;;;293.87;279.97;;;;;;;10.87;100.00;102180.00;5013150;28;20988;-53
2022/10/27 06:18:01;;;;;;;303.53;289.60;;;;;;;10.90;100.00;102193.03;5007614;28;20465;-48
2022/10/27 06:20:29;;;;;;;301.23;286.33;;;;;;;10.92;100.00;102187.53;5017145;28;20476;-52
2022/10/27 06:22:56;;;;;;;294.53;278.97;;;;;;;10.94;100.00;102189.06;5020962;28;20490;-48
2022/10/27 06:25:24;;;;;;;291.30;277.63;;;;;;;10.97;100.00;102187.88;5009131;28;20434;-47
2022/10/27 06:27:52;;;;;;;298.90;284.77;;;;;;;10.98;100.00;102202.91;5012976;28;20460;-47
2022/10/27 06:30:20;;;;;;;297.47;282.90;;;;;;;11.00;100.00;102201.75;5006068;28;20457;-48
2022/10/27 06:32:49;;;;;;;302.37;288.40;;;;;;;11.03;100.00;102203.25;5012923;28;20494;-48
2022/10/27 06:35:17;;;;;;;301.37;287.00;;;;;;;11.06;100.00;102205.59;5012660;28;20437;-49
2022/10/27 06:37:46;;;;;;;304.83;290.80;;;;;;;11.08;100.00;102201.75;5012494;28;20457;-47
2022/10/27 06:40:15;;;;;;;299.23;285.50;;;;;;;11.14;100.00;102215.47;5012016;28;20530;-47
2022/10/27 06:42:43;;;;;;;308.07;294.20;;;;;;;11.17;100.00;102213.25;5008398;28;20488;-46
2022/10/27 06:45:30;;;;;;;305.13;291.50;;;;;;;11.22;100.00;102210.13;5010564;28;20472;-49
2022/10/27 06:48:00;;;;;;;302.53;288.63;;;;;;;11.25;100.00;102205.28;5012538;28;20461;-52
2022/10/27 06:50:29;;;;;;;305.07;290.30;;;;;;;11.29;100.00;102211.94;5011858;28;20507;-48
2022/10/27 06:52:57;;;;;;;301.70;287.80;;;;;;;11.34;100.00;102214.13;5011477;28;20481;-50
2022/10/27 06:55:25;;;;;;;299.73;286.50;;;;;;;11.39;100.00;102206.44;5004726;28;20584;-47
2022/10/27 06:57:53;;;;;;;307.40;293.27;;;;;;;11.45;100.00;102213.81;4997403;28;20863;-50
2022/10/27 07:00:21;;;;;;;304.67;291.07;;;;;;;11.49;100.00;102218.66;5004180;28;20524;-51
2022/10/27 07:02:49;;;;;;;316.40;301.93;;;;;;;11.57;100.00;102215.13;5010758;28;20440;-50
2022/10/27 07:05:19;;;;;;;310.53;296.97;;;;;;;11.64;100.00;102230.34;5012191;28;20850;-49
2022/10/27 07:07:47;;;;;;;300.17;286.87;;;;;;;11.72;100.00;102239.38;5009334;28;20462;-46
2022/10/27 07:10:15;;;;;;;320.43;304.93;;;;;;;11.81;100.00;102249.06;5000999;28;20891;-49
2022/10/27 07:12:52;;;;;;;306.47;292.10;;;;;;;11.89;100.00;102251.72;4999336;28;20442;-45
2022/10/27 07:15:20;;;;;;;295.87;283.30;;;;;;;11.98;100.00;102248.88;5010521;28;20528;-51
2022/10/27 07:17:48;;;;;;;293.77;281.27;;;;;;;12.06;100.00;102245.38;5001975;28;20444;-46
2022/10/27 07:20:20;;;;;;;287.27;274.47;;;;;;;12.12;100.00;102244.69;5011284;28;20472;-47
2022/10/27 07:22:48;;;;;;;298.77;285.57;;;;;;;12.18;100.00;102236.81;5025573;28;20873;-48
2022/10/27 07:25:15;;;;;;;297.67;285.07;;;;;;;12.26;100.00;102241.31;5009833;28;20433;-47
2022/10/27 07:27:52;;;;;;;294.23;281.63;;;;;;;12.35;100.00;102242.13;5011338;28;20457;-50
2022/10/27 07:30:21;;;;;;;284.60;272.87;;;;;;;12.41;100.00;102241.44;5003271;28;20469;-46
2022/10/27 07:32:50;;;;;;;291.23;278.60;;;;;;;12.50;100.00;102251.09;5011625;28;20517;-46
2022/10/27 07:35:17;;;;;;;282.80;270.80;;;;;;;12.57;100.00;102260.13;5011459;28;20425;-49
2022/10/27 07:37:47;;;;;;;283.53;272.43;;;;;;;12.67;100.00;102247.34;5008798;28;20863;-50
2022/10/27 07:40:16;;;;;;;277.30;265.03;;;;;;;12.76;100.00;102249.84;5010330;28;21217;-47
2022/10/27 07:42:45;;;;;;;281.57;270.03;;;;;;;12.87;100.00;102251.31;5011096;28;20480;-47
2022/10/27 07:45:14;;;;;;;269.60;258.00;;;;;;;12.92;100.00;102245.41;5011650;28;20441;-46
2022/10/27 07:47:46;;;;;;;263.60;252.40;;;;;;;13.02;100.00;102249.53;5011295;28;20464;-47
2022/10/27 07:50:16;;;;;;;253.20;242.50;;;;;;;13.08;100.00;102250.72;5010975;28;20882;-48
2022/10/27 07:52:47;;;;;;;247.60;237.87;;;;;;;13.11;100.00;102239.66;4999227;28;20440;-50
2022/10/27 07:55:17;;;;;;;244.17;234.33;;;;;;;13.18;100.00;102240.59;5011450;28;20437;-50
2022/10/27 07:57:45;;;;;;;239.90;230.40;;;;;;;13.23;100.00;102241.72;5003146;28;20500;-48
2022/10/27 08:00:14;;;;;;;234.30;224.80;;;;;;;13.30;100.00;102242.69;5002674;28;20466;-48
2022/10/27 08:02:43;;;;;;;215.83;207.30;;;;;;;13.38;100.00;102249.81;4992138;28;20999;-51
2022/10/27 08:05:11;;;;;;;212.10;203.40;;;;;;;13.49;100.00;102256.63;5008348;28;20433;-46
2022/10/27 08:07:38;;;;;;;199.40;191.30;;;;;;;13.53;100.00;102245.34;5005082;28;20480;-47
2022/10/27 08:10:09;;;;;;;190.83;182.07;;;;;;;13.61;100.00;102247.16;5002855;28;20461;-47
2022/10/27 08:12:41;;;;;;;182.93;175.17;;;;;;;13.69;100.00;102255.97;4996286;28;20430;-47
2022/10/27 08:15:10;;;;;;;175.67;167.77;;;;;;;13.74;100.00;102260.78;5011118;28;20487;-47
2022/10/27 08:17:38;;;;;;;161.60;154.13;;;;;;;13.94;100.00;102255.75;4998094;28;20437;-48
2022/10/27 08:20:07;;;;;;;144.10;137.50;;;;;;;14.08;100.00;102253.09;5010586;28;20467;-52
2022/10/27 08:22:34;;;;;;;129.13;122.93;;;;;;;14.27;100.00;102262.47;5023186;28;20476;-48
2022/10/27 08:25:02;;;;;;;118.07;112.57;;;;;;;14.42;100.00;102255.28;5001989;28;20483;-48
2022/10/27 08:27:37;;;;;;;113.70;108.10;;;;;;;14.49;100.00;102250.84;5010864;28;20456;-46
2022/10/27 08:30:05;;;;;;;113.50;107.97;;;;;;;14.58;100.00;102255.09;4993505;28;20466;-46
2022/10/27 08:32:32;;;;;;;106.83;100.93;;;;;;;14.67;100.00;102256.66;5007935;28;20842;-44
2022/10/27 08:35:06;;;;;;;99.63;94.67;;;;;;;14.77;100.00;102259.06;5010870;28;20839;-47
2022/10/27 08:37:33;;;;;;;93.70;88.40;;;;;;;14.86;100.00;102256.09;5010761;28;20851;-46
2022/10/27 08:40:01;;;;;;;88.73;83.67;;;;;;;14.98;100.00;102260.97;5010360;28;20465;-49
2022/10/27 08:42:42;;;;;;;85.33;80.30;;;;;;;15.13;100.00;102259.06;5010661;28;20530;-47
2022/10/27 08:45:15;;;;;;;80.67;75.50;;;;;;;15.28;100.00;102257.19;5004956;28;21203;-47
2022/10/27 08:50:20;;;;;;;71.67;67.50;;;;;;;15.55;100.00;102258.31;5000078;28;20877;-51
2022/10/27 08:52:51;;;;;;;70.73;66.80;;;;;;;15.57;100.00;102267.84;5008278;28;20429;-51
2022/10/27 08:55:23;;;;;;;71.57;67.27;;;;;;;15.60;100.00;102253.19;5010761;28;20929;-55
2022/10/27 08:58:00;;;;;;;64.03;60.00;;;;;;;15.72;100.00;102263.22;5010425;28;20440;-54
2022/10/27 09:00:31;;;;;;;57.57;54.07;;;;;;;15.86;100.00;102251.53;5007193;28;20498;-51
2022/10/27 09:03:19;;;;;;;55.27;51.60;;;;;;;15.93;100.00;102256.97;5010344;28;20988;-55
2022/10/27 09:05:58;;;;;;;53.80;49.73;;;;;;;16.07;100.00;102258.75;5010610;28;20818;-55
2022/10/27 09:08:36;;;;;;;52.23;48.67;;;;;;;16.09;100.00;102253.19;5010155;28;20456;-51
2022/10/27 09:11:13;;;;;;;52.77;48.87;;;;;;;16.15;100.00;102247.00;5010050;28;20503;-54
2022/10/27 09:13:57;;;;;;;48.67;45.30;;;;;;;16.26;100.00;102249.97;5007885;28;20487;-53
2022/10/27 09:16:33;;;;;;;48.47;44.67;;;;;;;16.26;100.00;102249.97;5010898;28;20437;-53
2022/10/27 09:19:04;;;;;;;47.23;43.60;;;;;;;16.31;100.00;102252.06;5010034;28;20961;-53
2022/10/27 09:21:36;;;;;;;45.83;42.73;;;;;;;16.33;100.00;102252.72;5017891;28;20499;-55
2022/10/27 09:24:07;;;;;;;47.33;43.97;;;;;;;16.44;100.00;102249.47;5016564;28;20494;-52
2022/10/27 09:26:35;;;;;;;46.60;43.10;;;;;;;16.52;100.00;102249.28;5009889;28;20421;-55
2022/10/27 09:29:14;;;;;;;48.87;45.00;;;;;;;16.69;100.00;102241.75;5009702;28;20511;-53
2022/10/27 09:31:48;;;;;;;48.20;44.50;;;;;;;16.77;100.00;102245.13;5004912;28;21044;-55
2022/10/27 09:34:21;;;;;;;49.47;45.83;;;;;;;16.88;100.00;102249.91;5010137;28;20432;-51
2022/10/27 09:36:49;;;;;;;48.90;45.40;;;;;;;17.01;100.00;102247.28;5010110;28;20429;-53
2022/10/27 09:39:17;;;;;;;47.67;44.33;;;;;;;17.13;100.00;102250.22;5009446;28;21066;-55
2022/10/27 09:41:45;;;;;;;48.00;44.60;;;;;;;17.26;100.00;102249.44;5009810;28;20775;-50
2022/10/27 09:44:19;;;;;;;47.57;44.20;;;;;;;17.39;100.00;102249.44;5010013;28;20511;-54
2022/10/27 09:46:52;;;;;;;47.33;43.83;;;;;;;17.45;100.00;102254.00;5010372;28;20443;-50
2022/10/27 09:49:22;;;;;;;46.30;42.80;;;;;;;17.64;100.00;102255.94;5009234;28;20812;-47
2022/10/27 09:51:54;;;;;;;46.67;43.53;;;;;;;17.74;100.00;102258.25;5009136;28;20440;-52
2022/10/27 09:54:31;;;;;;;46.60;43.13;;;;;;;17.73;100.00;102254.72;5010251;28;20433;-47
2022/10/27 09:57:06;;;;;;;44.60;41.37;;;;;;;17.78;100.00;102246.81;5010016;28;20479;-48
2022/10/27 09:59:36;;;;;;;47.13;43.80;;;;;;;17.68;100.00;102249.09;5009404;28;20881;-51
2022/10/27 10:02:06;;;;;;;47.43;44.23;;;;;;;17.63;100.00;102241.63;5009745;28;21056;-48
2022/10/27 10:04:36;;;;;;;49.20;45.33;;;;;;;17.71;100.00;102245.16;5009859;28;20503;-50
2022/10/27 10:07:07;;;;;;;47.63;44.00;;;;;;;17.76;100.00;102246.19;5013608;28;20429;-49
2022/10/27 10:09:38;;;;;;;47.73;44.47;;;;;;;17.68;100.00;102241.00;5011258;28;20472;-49
2022/10/27 10:12:26;;;;;;;44.27;41.33;;;;;;;17.68;100.00;102247.22;5013232;28;20448;-49
2022/10/27 10:15:16;;;;;;;45.40;42.53;;;;;;;17.77;100.00;102252.44;5011275;28;20498;-53
2022/10/27 10:17:52;;;;;;;43.00;40.20;;;;;;;17.95;100.00;102242.66;5010865;28;20429;-53
2022/10/27 10:20:31;;;;;;;42.80;40.20;;;;;;;18.22;100.00;102243.44;5016862;28;20466;-51
2022/10/27 10:22:59;;;;;;;44.50;41.80;;;;;;;18.37;100.00;102235.94;5017655;28;20538;-53
2022/10/27 10:25:28;;;;;;;42.03;39.33;;;;;;;18.37;100.00;102230.53;5012898;28;20433;-51
2022/10/27 10:27:58;;;;;;;43.33;40.63;;;;;;;18.40;100.00;102227.41;5012882;28;20433;-48
2022/10/27 10:30:27;;;;;;;43.33;40.40;;;;;;;18.34;100.00;102233.66;5012223;28;20468;-53
2022/10/27 10:32:57;;;;;;;43.33;40.70;;;;;;;18.30;100.00;102228.91;5011853;28;20495;-52
2022/10/27 10:35:43;;;;;;;42.23;39.60;;;;;;;18.32;100.00;102230.34;5012858;28;20467;-49
2022/10/27 10:38:29;;;;;;;44.53;41.50;;;;;;;18.38;100.00;102236.75;5013080;28;20452;-52
2022/10/27 10:41:01;;;;;;;44.70;41.97;;;;;;;18.49;100.00;102238.84;4999113;28;20511;-50
2022/10/27 10:43:29;;;;;;;47.33;43.83;;;;;;;18.56;100.00;102237.78;5012378;28;20480;-50
2022/10/27 10:45:58;;;;;;;48.30;45.17;;;;;;;18.63;100.00;102238.59;5013310;28;20494;-55
2022/10/27 10:48:39;;;;;;;47.10;43.93;;;;;;;18.73;100.00;102230.03;5012355;28;20537;-48
2022/10/27 10:51:07;;;;;;;44.27;41.57;;;;;;;18.84;100.00;102223.97;5012118;28;20501;-55
2022/10/27 10:53:39;;;;;;;46.43;43.70;;;;;;;18.90;100.00;102228.50;5011791;28;20829;-50
2022/10/27 10:56:21;;;;;;;45.60;42.40;;;;;;;18.94;100.00;102226.19;5012555;28;20436;-53
2022/10/27 10:58:53;;;;;;;44.90;41.87;;;;;;;18.95;100.00;102214.34;5004661;28;20514;-52
2022/10/27 11:01:22;;;;;;;46.20;43.40;;;;;;;18.95;100.00;102223.28;5010825;28;20487;-55
2022/10/27 11:03:54;;;;;;;46.10;42.77;;;;;;;19.00;100.00;102214.50;5012000;28;20523;-49
2022/10/27 11:06:22;;;;;;;45.43;42.43;;;;;;;19.07;100.00;102209.91;5011987;28;20436;-50
2022/10/27 11:08:58;;;;;;;45.93;42.80;;;;;;;19.05;100.00;102215.53;5009828;28;20515;-52
2022/10/27 11:11:31;;;;;;;44.50;41.53;;;;;;;19.18;100.00;102199.22;5012239;28;20474;-51
2022/10/27 11:14:01;;;;;;;44.90;42.00;;;;;;;19.29;100.00;102203.91;5012207;28;20482;-50